PAGY/SGY METAR and TAF weather

Enter ICAO airport designator
Station Type Date Time Source
PAGY METAR 2019/08/24 17:53 UTC NOAA

PAGY 241753Z AUTO 00000KT 8SM BKN007 OVC013 10/10 A2963 RMK AO2 RAE35 SLP035 P0001 60026 T01000100 10106 20094 51013 TSNO


Station Type Date Time Source
PAGY Decoded METAR 2019/08/24 17:53 UTC NOAA

Station name not available
Aug 24, 2019 - 01:53 PM EDT / 2019.08.24 1753 UTC
Wind: Calm:0
Visibility: 8 mile(s):0
Sky conditions: overcast
Precipitation last hour: 0.01 inches
Temperature: 50.0 F (10.0 C)
Dew Point: 50.0 F (10.0 C)
Relative Humidity: 100%
Pressure (altimeter): 29.63 in. Hg (1003 hPa)
Pressure tendency: 0.04 inches (1.3 hPa) higher than three hours ago
ob: PAGY 241753Z AUTO 00000KT 8SM BKN007 OVC013 10/10 A2963 RMK AO2 RAE35 SLP035 P0001 60026 T01000100 10106 20094 51013 TSNO
cycle: 18

Station Type Date Time Source
PAGY TAF 2019/08/24 18:39 UTC NOAA

TAF PAGY 241736Z 2418/2518 00000KT P6SM -RA SCT008 OVC012
TEMPO 2418/2422 2SM BR BKN008
FM242200 21010KT P6SM -SHRA OVC025
FM250000 21015KT P6SM VCSH SCT025 OVC040
FM250600 VRB04KT P6SM VCSH BKN015 OVC025
AMD LTD TO CLD VIS AND WIND

Example: see airport list